Time;durP1;ratioP1;P1;durP2;ratioP2;P2;SDS_P1;SDS_P2;PMS_P1;PMS_P2;Temp;Humidity;BMP_temperature;BMP_pressure;BME280_temperature;BME280_humidity;BME280_pressure;Samples;Min_cycle;Max_cycle;Signal;HPM_P1;HPM_P2
2023/04/19 00:00:37;;;;;;;18.73;15.53;;;13.10;99.90;;;;;;4915672;29;20430;-85
2023/04/19 00:03:04;;;;;;;16.60;14.80;;;13.10;99.90;;;;;;4916182;29;20495;-84
2023/04/19 00:05:31;;;;;;;18.60;16.60;;;13.20;99.90;;;;;;4898027;29;20442;-84
2023/04/19 00:07:58;;;;;;;17.60;15.70;;;13.10;99.90;;;;;;4915135;29;20455;-84
2023/04/19 00:10:24;;;;;;;18.37;16.40;;;13.10;99.90;;;;;;4928012;29;20436;-83
2023/04/19 00:12:50;;;;;;;19.20;17.03;;;13.10;99.90;;;;;;4915078;29;20429;-84
2023/04/19 00:15:15;;;;;;;21.10;17.53;;;13.10;99.90;;;;;;4913739;29;20518;-84
2023/04/19 00:17:41;;;;;;;20.67;17.47;;;13.20;99.90;;;;;;4915931;29;20448;-84
2023/04/19 00:20:08;;;;;;;20.50;17.30;;;13.20;99.90;;;;;;4914179;29;20227;-81
2023/04/19 00:22:34;;;;;;;18.83;16.80;;;13.20;99.90;;;;;;4914130;29;20662;-84
2023/04/19 00:25:03;;;;;;;19.87;17.73;;;13.10;99.90;;;;;;4912225;29;20413;-84
2023/04/19 00:27:28;;;;;;;20.17;18.07;;;13.10;99.90;;;;;;4908884;29;20468;-82
2023/04/19 00:29:56;;;;;;;27.33;19.03;;;13.10;99.90;;;;;;4898516;29;20570;-84
2023/04/19 00:32:22;;;;;;;22.70;18.10;;;13.10;99.90;;;;;;4915568;29;20183;-83
2023/04/19 00:34:47;;;;;;;20.57;18.57;;;13.10;99.90;;;;;;4915502;29;20498;-84
2023/04/19 00:37:13;;;;;;;19.17;16.80;;;13.10;99.90;;;;;;4919744;29;20188;-84
2023/04/19 00:39:39;;;;;;;21.03;18.80;;;13.10;99.90;;;;;;4902535;29;20231;-83
2023/04/19 00:42:05;;;;;;;20.57;17.70;;;13.10;99.90;;;;;;4918078;29;20183;-84
2023/04/19 00:44:30;;;;;;;21.93;18.93;;;13.00;99.90;;;;;;4915229;29;20942;-83
2023/04/19 00:46:56;;;;;;;21.27;19.07;;;13.00;99.90;;;;;;4914217;29;20621;-83
2023/04/19 00:49:23;;;;;;;22.20;19.53;;;13.00;99.90;;;;;;4914738;29;20222;-83
2023/04/19 00:51:50;;;;;;;21.40;19.10;;;12.90;99.90;;;;;;4914930;29;20438;-84
2023/04/19 00:54:17;;;;;;;21.73;19.43;;;12.90;99.90;;;;;;4914733;29;20427;-83
2023/04/19 00:56:44;;;;;;;21.17;18.87;;;12.80;99.90;;;;;;4916078;29;20412;-83
2023/04/19 00:59:11;;;;;;;20.37;18.17;;;12.90;99.90;;;;;;4915102;29;20435;-81
2023/04/19 01:01:37;;;;;;;25.30;19.13;;;12.80;99.90;;;;;;4915686;29;20431;-84
2023/04/19 01:04:04;;;;;;;19.93;17.80;;;12.90;99.90;;;;;;4915767;29;20466;-84
2023/04/19 01:06:31;;;;;;;22.83;18.83;;;13.00;99.90;;;;;;4914734;29;21085;-84
2023/04/19 01:08:57;;;;;;;21.27;18.93;;;13.00;99.90;;;;;;4915189;29;20577;-84
2023/04/19 01:11:23;;;;;;;23.70;18.83;;;13.00;99.90;;;;;;4914258;29;20529;-83
2023/04/19 01:13:49;;;;;;;21.63;19.33;;;13.10;99.90;;;;;;4915621;29;20434;-84
2023/04/19 01:16:15;;;;;;;23.87;19.70;;;13.00;99.90;;;;;;4911678;29;20482;-83
2023/04/19 01:18:41;;;;;;;20.73;18.60;;;13.00;99.90;;;;;;4915834;29;20435;-84
2023/04/19 01:21:08;;;;;;;22.50;19.27;;;13.00;99.90;;;;;;4915045;29;20424;-84
2023/04/19 01:23:38;;;;;;;22.23;19.90;;;13.00;99.90;;;;;;4914314;29;20657;-84
2023/04/19 01:26:04;;;;;;;24.17;18.70;;;13.00;99.90;;;;;;4897633;29;20449;-84
2023/04/19 01:28:31;;;;;;;23.43;19.60;;;13.10;99.90;;;;;;4908941;29;21113;-84
2023/04/19 01:30:57;;;;;;;24.70;20.10;;;13.10;99.90;;;;;;4915342;29;20431;-83
2023/04/19 01:33:23;;;;;;;21.63;19.33;;;13.10;99.90;;;;;;4914289;29;20432;-84
2023/04/19 01:35:49;;;;;;;23.13;19.97;;;13.20;99.90;;;;;;4915776;29;20412;-84
2023/04/19 01:38:15;;;;;;;24.77;19.53;;;13.10;99.90;;;;;;4912548;29;20440;-83
2023/04/19 01:40:41;;;;;;;22.90;19.70;;;13.00;99.90;;;;;;4913141;29;20439;-84
2023/04/19 01:43:07;;;;;;;22.00;19.53;;;13.10;99.90;;;;;;4915868;29;20449;-84
2023/04/19 01:45:35;;;;;;;23.87;19.87;;;13.10;99.90;;;;;;4913929;29;21132;-84
2023/04/19 01:48:03;;;;;;;22.50;20.10;;;13.10;99.90;;;;;;4914463;29;20433;-84
2023/04/19 01:50:29;;;;;;;23.20;19.90;;;13.10;99.90;;;;;;4918311;29;20502;-84
2023/04/19 01:52:55;;;;;;;21.37;19.20;;;13.00;99.90;;;;;;4920504;29;20410;-84
2023/04/19 01:55:21;;;;;;;23.30;20.87;;;12.90;99.90;;;;;;4917516;29;20443;-84
2023/04/19 01:57:47;;;;;;;21.90;19.60;;;12.90;99.90;;;;;;4918316;29;20439;-84
2023/04/19 02:00:14;;;;;;;22.10;19.47;;;13.00;99.90;;;;;;4916677;29;20198;-82
2023/04/19 02:02:40;;;;;;;21.20;18.97;;;13.00;99.90;;;;;;4917864;29;20204;-83
2023/04/19 02:05:07;;;;;;;22.10;18.30;;;13.10;99.90;;;;;;4916696;29;20522;-84
2023/04/19 02:07:33;;;;;;;26.67;20.27;;;13.10;99.90;;;;;;4916799;29;20468;-84
2023/04/19 02:09:59;;;;;;;22.07;17.90;;;13.10;99.90;;;;;;4918342;29;20482;-84
2023/04/19 02:12:30;;;;;;;21.20;18.57;;;13.10;99.90;;;;;;4917064;29;20990;-84
2023/04/19 02:15:00;;;;;;;21.27;18.47;;;13.00;99.90;;;;;;4917237;29;20483;-84
2023/04/19 02:17:27;;;;;;;20.53;18.03;;;13.00;99.90;;;;;;4917147;29;20442;-84
2023/04/19 02:19:53;;;;;;;20.20;17.23;;;13.00;99.90;;;;;;4917662;29;20438;-84
2023/04/19 02:22:19;;;;;;;17.87;15.93;;;12.90;99.90;;;;;;4917221;29;20433;-83
2023/04/19 02:24:49;;;;;;;17.50;15.30;;;13.00;99.90;;;;;;4918563;29;20420;-84
2023/04/19 02:27:16;;;;;;;16.87;15.13;;;12.90;99.90;;;;;;4916633;29;20469;-83
2023/04/19 02:29:42;;;;;;;16.33;14.67;;;12.80;99.90;;;;;;4917655;29;20958;-84
2023/04/19 02:32:07;;;;;;;17.80;14.50;;;13.00;99.90;;;;;;4917838;29;20449;-84
2023/04/19 02:34:34;;;;;;;16.17;14.47;;;;;;;;;;4917410;29;20441;-84
2023/04/19 02:37:00;;;;;;;14.87;13.17;;;13.00;99.90;;;;;;4917932;29;20175;-83
2023/04/19 02:39:26;;;;;;;12.47;11.27;;;13.00;99.90;;;;;;4917660;29;20415;-84
2023/04/19 02:41:52;;;;;;;15.43;13.30;;;12.90;99.90;;;;;;4919965;29;20431;-84
2023/04/19 02:44:18;;;;;;;12.83;11.53;;;12.90;99.90;;;;;;4920839;29;20783;-82
2023/04/19 02:46:51;;;;;;;13.73;12.17;;;13.00;99.90;;;;;;4901848;29;20719;-84
2023/04/19 02:49:17;;;;;;;12.70;11.37;;;13.00;99.90;;;;;;4919409;29;20201;-81
2023/04/19 02:51:43;;;;;;;13.30;11.23;;;13.00;99.90;;;;;;4919084;29;20799;-83
2023/04/19 02:54:11;;;;;;;13.50;11.33;;;13.00;99.90;;;;;;4919046;29;20438;-83
2023/04/19 02:56:36;;;;;;;11.53;10.33;;;13.00;99.90;;;;;;4916171;29;20375;-84
2023/04/19 02:59:03;;;;;;;11.80;9.33;;;13.00;99.90;;;;;;4917255;29;20415;-81
2023/04/19 03:01:30;;;;;;;10.20;9.10;;;12.90;99.90;;;;;;4914042;29;20195;-84
2023/04/19 03:03:56;;;;;;;11.03;9.37;;;12.90;99.90;;;;;;4916557;29;20429;-85
2023/04/19 03:06:21;;;;;;;10.70;9.60;;;12.90;99.90;;;;;;4916339;29;20466;-83
2023/04/19 03:08:47;;;;;;;9.33;8.37;;;13.00;99.90;;;;;;4917765;29;20768;-84
2023/04/19 03:11:15;;;;;;;10.30;8.20;;;13.00;99.90;;;;;;4916957;29;20202;-83
2023/04/19 03:13:42;;;;;;;9.87;8.83;;;13.00;99.90;;;;;;4914690;29;20269;-83
2023/04/19 03:16:07;;;;;;;9.33;8.40;;;13.00;99.90;;;;;;4917624;29;20666;-83
2023/04/19 03:18:33;;;;;;;9.13;8.00;;;12.90;99.90;;;;;;4898651;29;20954;-83
2023/04/19 03:21:00;;;;;;;9.20;8.20;;;12.90;99.90;;;;;;4917160;29;20184;-82
2023/04/19 03:23:26;;;;;;;10.83;8.30;;;12.90;99.90;;;;;;4916092;29;20451;-83
2023/04/19 03:25:52;;;;;;;9.07;7.93;;;12.90;99.90;;;;;;4914730;29;20478;-83
2023/04/19 03:28:18;;;;;;;9.73;8.83;;;12.80;99.90;;;;;;4916763;29;20408;-81
2023/04/19 03:30:44;;;;;;;8.83;8.03;;;12.80;99.90;;;;;;4916182;29;20953;-83
2023/04/19 03:33:09;;;;;;;8.33;7.60;;;12.80;99.90;;;;;;4916279;29;20430;-84
2023/04/19 03:35:35;;;;;;;9.00;8.10;;;12.80;99.90;;;;;;4913882;29;20277;-83
2023/04/19 03:38:01;;;;;;;10.33;8.20;;;12.70;99.90;;;;;;4915045;29;20191;-84
2023/04/19 03:40:26;;;;;;;8.10;7.30;;;12.70;99.90;;;;;;4914385;29;20578;-84
2023/04/19 03:42:52;;;;;;;9.77;7.83;;;12.70;99.90;;;;;;4915556;29;20191;-83
2023/04/19 03:45:18;;;;;;;9.10;8.30;;;12.80;99.90;;;;;;4916696;29;20221;-82
2023/04/19 03:47:44;;;;;;;8.47;7.73;;;12.80;99.90;;;;;;4925167;29;20590;-84
2023/04/19 03:50:10;;;;;;;7.80;7.00;;;12.70;99.90;;;;;;4916941;29;20450;-84
2023/04/19 03:52:37;;;;;;;8.13;7.37;;;12.70;99.90;;;;;;4915345;29;20942;-84
2023/04/19 03:55:03;;;;;;;11.00;9.30;;;12.80;99.90;;;;;;4916063;29;20210;-84
2023/04/19 03:57:28;;;;;;;9.10;8.30;;;12.60;99.90;;;;;;4916051;29;20455;-84
2023/04/19 03:59:54;;;;;;;8.60;7.80;;;12.60;99.90;;;;;;4916517;29;20840;-84
2023/04/19 04:02:20;;;;;;;8.80;8.00;;;12.70;99.90;;;;;;4913224;29;20233;-81
2023/04/19 04:04:45;;;;;;;8.73;7.90;;;12.50;99.90;;;;;;4916204;29;20181;-84
2023/04/19 04:07:11;;;;;;;8.67;7.87;;;12.50;99.90;;;;;;4915738;29;20282;-83
2023/04/19 04:09:37;;;;;;;9.17;8.40;;;12.40;99.90;;;;;;4914627;29;20281;-84
2023/04/19 04:12:03;;;;;;;9.63;8.63;;;12.50;99.90;;;;;;4916291;29;20177;-83
2023/04/19 04:14:28;;;;;;;8.97;8.07;;;12.50;99.90;;;;;;4914617;29;20194;-83
2023/04/19 04:16:54;;;;;;;8.57;7.67;;;12.50;99.90;;;;;;4915801;29;20175;-83
2023/04/19 04:19:20;;;;;;;9.97;9.07;;;12.50;99.90;;;;;;4916281;29;20190;-81
2023/04/19 04:21:47;;;;;;;10.03;9.03;;;12.60;99.90;;;;;;4914373;29;20656;-83
2023/04/19 04:24:14;;;;;;;9.30;8.50;;;12.60;99.90;;;;;;4915540;29;20441;-83
2023/04/19 04:26:40;;;;;;;8.20;7.37;;;12.60;99.90;;;;;;4913057;29;20973;-83
2023/04/19 04:29:05;;;;;;;9.10;8.20;;;12.60;99.90;;;;;;4914724;29;20960;-83
2023/04/19 04:31:31;;;;;;;9.03;8.23;;;12.50;99.90;;;;;;4914801;29;20198;-84
2023/04/19 04:33:57;;;;;;;8.37;7.40;;;12.50;99.90;;;;;;4914299;29;20658;-83
2023/04/19 04:36:23;;;;;;;9.00;8.20;;;12.40;99.90;;;;;;4914638;29;20259;-81
2023/04/19 04:38:49;;;;;;;9.40;8.50;;;12.50;99.90;;;;;;4912789;29;20238;-82
2023/04/19 04:41:15;;;;;;;9.23;8.20;;;12.40;99.90;;;;;;4899503;29;20274;-82
2023/04/19 04:43:41;;;;;;;9.13;8.13;;;12.30;99.90;;;;;;4914016;29;20626;-82
2023/04/19 04:46:07;;;;;;;8.40;7.63;;;12.30;99.90;;;;;;4914858;29;20958;-82
2023/04/19 04:48:33;;;;;;;8.57;7.87;;;12.30;99.90;;;;;;4915007;29;20202;-82
2023/04/19 04:50:59;;;;;;;8.73;7.93;;;12.20;99.90;;;;;;4914729;29;20434;-82
2023/04/19 04:53:26;;;;;;;10.20;9.20;;;12.30;99.90;;;;;;4914091;29;20431;-80
2023/04/19 04:55:54;;;;;;;9.70;8.20;;;12.20;99.90;;;;;;4914005;29;20179;-82
2023/04/19 04:58:20;;;;;;;8.20;7.37;;;12.30;99.90;;;;;;4914406;29;20442;-82
2023/04/19 05:00:47;;;;;;;10.50;9.60;;;12.30;99.90;;;;;;4896831;29;20438;-82
2023/04/19 05:03:13;;;;;;;11.30;9.80;;;12.20;99.90;;;;;;4914689;29;20182;-82
2023/04/19 05:05:39;;;;;;;10.50;9.47;;;12.30;99.90;;;;;;4912935;29;20819;-83
2023/04/19 05:08:07;;;;;;;9.60;8.60;;;12.30;99.90;;;;;;4914831;29;20445;-83
2023/04/19 05:10:33;;;;;;;10.93;8.67;;;12.30;99.90;;;;;;4913643;29;20797;-82
2023/04/19 05:13:00;;;;;;;9.43;8.60;;;12.30;99.80;;;;;;4915730;29;20183;-81
2023/04/19 05:15:26;;;;;;;10.60;9.50;;;12.30;99.70;;;;;;4915631;29;20240;-81
2023/04/19 05:17:51;;;;;;;10.10;8.50;;;12.20;99.90;;;;;;4916084;29;20584;-83
2023/04/19 05:20:17;;;;;;;10.33;8.77;;;12.10;99.90;;;;;;4915813;29;20187;-83
2023/04/19 05:22:43;;;;;;;9.90;8.90;;;12.20;99.90;;;;;;4916624;29;20182;-82
2023/04/19 05:25:10;;;;;;;10.17;8.97;;;12.20;99.70;;;;;;4917316;29;20194;-82
2023/04/19 05:27:35;;;;;;;10.70;9.70;;;12.10;99.50;;;;;;4918094;29;20212;-83
2023/04/19 05:30:02;;;;;;;11.53;10.43;;;12.10;99.90;;;;;;4918542;29;20506;-82
2023/04/19 05:32:28;;;;;;;12.73;9.33;;;12.10;99.60;;;;;;4917507;29;20565;-81
2023/04/19 05:34:54;;;;;;;9.50;7.43;;;12.00;99.60;;;;;;4917811;29;20439;-82
2023/04/19 05:37:20;;;;;;;9.37;8.40;;;12.10;99.30;;;;;;4933295;29;20505;-83
2023/04/19 05:39:46;;;;;;;11.03;10.03;;;12.00;98.70;;;;;;4916757;29;20433;-81
2023/04/19 05:42:11;;;;;;;10.43;9.40;;;12.00;98.50;;;;;;4917926;29;20437;-82
2023/04/19 05:44:37;;;;;;;9.23;8.40;;;12.00;98.50;;;;;;4917566;29;20273;-81
2023/04/19 05:47:03;;;;;;;12.60;10.53;;;12.00;97.50;;;;;;4917463;29;20241;-82
2023/04/19 05:49:29;;;;;;;17.70;14.30;;;11.90;97.20;;;;;;4917296;29;20194;-81
2023/04/19 05:51:55;;;;;;;15.70;11.57;;;11.90;96.80;;;;;;4919015;29;20261;-94
2023/04/19 05:54:21;;;;;;;16.53;13.20;;;11.90;97.50;;;;;;4923262;29;20241;-95
2023/04/19 05:56:47;;;;;;;11.97;9.33;;;12.10;99.90;;;;;;4919662;29;20869;-92
2023/04/19 05:59:13;;;;;;;14.47;12.97;;;12.30;99.90;;;;;;4926254;29;20193;-92
2023/04/19 06:01:39;;;;;;;11.00;9.87;;;12.70;99.90;;;;;;4917052;29;20219;-95
2023/04/19 06:04:05;;;;;;;12.50;11.17;;;13.10;99.90;;;;;;4917035;29;20462;-91
2023/04/19 06:06:31;;;;;;;13.27;11.20;;;13.50;99.90;;;;;;4915486;29;20548;-90
2023/04/19 06:08:56;;;;;;;12.37;11.00;;;14.00;99.90;;;;;;4915960;29;20272;-89
2023/04/19 06:11:23;;;;;;;19.73;16.07;;;14.40;99.90;;;;;;4918280;29;20181;-94
2023/04/19 06:13:50;;;;;;;11.03;9.73;;;14.80;99.90;;;;;;4916330;29;20178;-96
2023/04/19 06:16:16;;;;;;;11.60;10.10;;;15.10;99.90;;;;;;4918323;29;20485;-91
2023/04/19 06:18:42;;;;;;;14.83;12.80;;;15.10;96.30;;;;;;4918703;29;20426;-95
2023/04/19 06:21:08;;;;;;;14.93;11.57;;;15.20;97.80;;;;;;4917761;29;20595;-87
2023/04/19 06:23:33;;;;;;;10.03;9.03;;;15.20;99.90;;;;;;4914715;29;20192;-87
2023/04/19 06:25:59;;;;;;;9.67;8.77;;;15.00;87.70;;;;;;4918602;29;20463;-87
2023/04/19 06:28:25;;;;;;;11.47;9.37;;;14.80;86.00;;;;;;4909886;29;20203;-86
2023/04/19 06:30:51;;;;;;;9.13;8.33;;;14.50;87.00;;;;;;4914540;29;20524;-85
2023/04/19 06:33:17;;;;;;;10.13;9.13;;;14.10;85.00;;;;;;4916459;29;20649;-85
2023/04/19 06:35:42;;;;;;;9.80;8.27;;;13.80;86.00;;;;;;4917755;29;20656;-87
2023/04/19 06:38:08;;;;;;;9.00;8.10;;;13.40;87.00;;;;;;4917862;29;20215;-88
2023/04/19 06:40:34;;;;;;;10.50;9.03;;;13.30;85.60;;;;;;4931977;29;20191;-87
2023/04/19 06:43:00;;;;;;;9.80;8.80;;;13.10;89.50;;;;;;4918449;29;20418;-86
2023/04/19 06:45:26;;;;;;;9.17;8.37;;;13.00;85.70;;;;;;4914199;29;20192;-87
2023/04/19 06:47:51;;;;;;;9.97;8.97;;;12.90;86.40;;;;;;4911966;29;20226;-86
2023/04/19 06:50:17;;;;;;;9.70;8.80;;;12.80;88.70;;;;;;4917479;29;20178;-85
2023/04/19 06:52:43;;;;;;;9.50;8.60;;;12.60;86.80;;;;;;4917317;29;20183;-84
2023/04/19 06:55:09;;;;;;;11.20;9.20;;;12.40;87.40;;;;;;4917255;29;20233;-88
2023/04/19 06:57:35;;;;;;;10.43;9.30;;;12.30;87.50;;;;;;4917033;29;20218;-89
2023/04/19 07:00:03;;;;;;;9.90;8.90;;;12.20;90.50;;;;;;4917169;29;20910;-87
2023/04/19 07:02:28;;;;;;;10.47;9.47;;;12.30;88.90;;;;;;4905190;29;20201;-86
2023/04/19 07:04:54;;;;;;;8.70;7.70;;;12.40;90.40;;;;;;4915900;29;20479;-87
2023/04/19 07:07:25;;;;;;;9.10;7.67;;;12.40;89.40;;;;;;4917189;29;20222;-88
2023/04/19 07:09:50;;;;;;;10.07;7.27;;;12.40;87.20;;;;;;4916457;29;20664;-85
2023/04/19 07:12:16;;;;;;;8.47;7.57;;;12.40;87.90;;;;;;4917186;29;20427;-85
2023/04/19 07:14:42;;;;;;;7.90;7.20;;;12.40;86.80;;;;;;4916693;29;20242;-85
2023/04/19 07:17:07;;;;;;;8.90;8.07;;;12.40;87.00;;;;;;4916597;29;20199;-85
2023/04/19 07:19:34;;;;;;;9.00;7.73;;;12.50;88.70;;;;;;4914178;29;20190;-84
2023/04/19 07:22:00;;;;;;;7.83;7.03;;;12.40;85.20;;;;;;4917777;29;20215;-86
2023/04/19 07:24:28;;;;;;;11.40;7.33;;;12.30;87.00;;;;;;4898544;29;20441;-85
2023/04/19 07:26:54;;;;;;;8.87;7.30;;;12.40;85.60;;;;;;4914914;29;20771;-85
2023/04/19 07:29:33;;;;;;;8.73;7.63;;;12.40;87.30;;;;;;4915892;29;20427;-85
2023/04/19 07:32:00;;;;;;;7.67;7.00;;;12.40;87.80;;;;;;4914515;29;20178;-85
2023/04/19 07:34:26;;;;;;;8.83;6.50;;;12.40;89.40;;;;;;4914768;29;20532;-85
2023/04/19 07:36:55;;;;;;;7.40;6.70;;;12.30;87.70;;;;;;4916446;29;20525;-86
2023/04/19 07:39:23;;;;;;;8.97;7.03;;;12.40;87.90;;;;;;4915818;29;20446;-86
2023/04/19 07:41:49;;;;;;;7.10;6.40;;;12.50;88.10;;;;;;4915521;29;20446;-86
2023/04/19 07:44:15;;;;;;;6.33;5.77;;;12.50;85.10;;;;;;4917053;29;20178;-85
2023/04/19 07:46:44;;;;;;;7.27;6.00;;;12.50;84.80;;;;;;4915995;29;20206;-85
2023/04/19 07:49:09;;;;;;;8.43;5.60;;;12.50;83.20;;;;;;4917312;29;20179;-85
2023/04/19 07:51:35;;;;;;;6.00;5.40;;;12.50;90.30;;;;;;4916799;29;20488;-84
2023/04/19 07:54:01;;;;;;;5.70;5.20;;;12.70;83.00;;;;;;4917117;29;20549;-85
2023/04/19 07:56:26;;;;;;;5.70;5.07;;;12.70;81.80;;;;;;4917185;29;20185;-85
2023/04/19 07:58:52;;;;;;;7.00;5.70;;;12.70;80.20;;;;;;4916498;29;20668;-85
2023/04/19 08:01:18;;;;;;;6.77;6.00;;;12.80;84.50;;;;;;4916992;29;20261;-85
2023/04/19 08:03:45;;;;;;;7.17;5.77;;;12.80;84.70;;;;;;4916327;29;20611;-85
2023/04/19 08:06:11;;;;;;;8.37;6.57;;;12.80;82.30;;;;;;4916860;29;20218;-86
2023/04/19 08:08:37;;;;;;;5.37;4.87;;;12.90;84.50;;;;;;4916160;29;20418;-85
2023/04/19 08:11:04;;;;;;;6.03;5.53;;;12.90;80.00;;;;;;4916896;29;20506;-85
2023/04/19 08:13:30;;;;;;;6.20;5.30;;;13.00;81.10;;;;;;4915745;29;20182;-85
2023/04/19 08:15:56;;;;;;;6.63;5.87;;;13.10;79.20;;;;;;4915599;29;20969;-85
2023/04/19 08:18:21;;;;;;;6.20;5.60;;;13.10;84.40;;;;;;4916739;29;20409;-85
2023/04/19 08:20:47;;;;;;;5.70;5.20;;;13.10;79.60;;;;;;4916054;29;20782;-85
2023/04/19 08:23:13;;;;;;;5.30;4.83;;;13.10;78.50;;;;;;4916707;29;20187;-85
2023/04/19 08:25:39;;;;;;;6.70;6.20;;;13.10;77.50;;;;;;4915972;29;20179;-85
2023/04/19 08:28:05;;;;;;;6.80;4.73;;;13.20;81.80;;;;;;4915340;29;20420;-85
2023/04/19 08:30:31;;;;;;;7.00;6.20;;;13.20;79.20;;;;;;4916823;29;20411;-85
2023/04/19 08:32:57;;;;;;;5.83;5.40;;;13.20;80.10;;;;;;4916216;29;20417;-84
2023/04/19 08:35:24;;;;;;;6.30;5.70;;;13.30;78.90;;;;;;4916629;29;20428;-85
2023/04/19 08:37:50;;;;;;;8.03;5.10;;;13.40;78.20;;;;;;4899049;29;20248;-85
2023/04/19 08:40:16;;;;;;;5.60;5.20;;;13.40;77.30;;;;;;4915270;29;20429;-85
2023/04/19 08:42:42;;;;;;;5.47;5.00;;;13.50;79.90;;;;;;4915750;29;20763;-85
2023/04/19 08:45:12;;;;;;;5.73;5.27;;;13.50;75.90;;;;;;4916576;29;20790;-85
2023/04/19 08:47:39;;;;;;;5.13;4.63;;;13.50;77.50;;;;;;4916668;29;20468;-85
2023/04/19 08:50:07;;;;;;;5.37;4.90;;;13.40;75.40;;;;;;4920798;29;20445;-85
2023/04/19 08:52:35;;;;;;;5.13;4.63;;;13.50;76.40;;;;;;4921836;29;20481;-85
2023/04/19 08:55:06;;;;;;;5.60;5.10;;;13.60;76.70;;;;;;4917243;29;20993;-85
2023/04/19 08:57:32;;;;;;;5.23;4.73;;;13.60;78.50;;;;;;4916201;29;20435;-85
2023/04/19 08:59:59;;;;;;;5.50;5.00;;;13.70;80.20;;;;;;4919596;29;20433;-85
2023/04/19 09:02:25;;;;;;;5.27;4.40;;;13.90;76.30;;;;;;4920551;29;20421;-85
2023/04/19 09:04:51;;;;;;;5.70;4.20;;;13.90;74.30;;;;;;4919420;29;20425;-85
2023/04/19 09:07:23;;;;;;;5.33;4.83;;;13.90;73.20;;;;;;4920029;29;20284;-86
2023/04/19 09:10:06;;;;;;;4.20;3.90;;;14.00;71.40;;;;;;4919976;29;20633;-85
2023/04/19 09:12:33;;;;;;;3.90;3.60;;;14.00;71.90;;;;;;4918968;29;20395;-86
2023/04/19 09:15:02;;;;;;;3.30;3.10;;;14.00;72.60;;;;;;4919251;29;20525;-85
2023/04/19 09:17:28;;;;;;;3.20;3.00;;;14.10;71.20;;;;;;4920011;29;20915;-86
2023/04/19 09:19:54;;;;;;;3.60;3.33;;;14.30;69.40;;;;;;4919414;29;20462;-85
2023/04/19 09:22:20;;;;;;;4.37;4.07;;;14.30;66.80;;;;;;4920051;29;20446;-86
2023/04/19 09:24:46;;;;;;;6.13;5.20;;;14.50;72.60;;;;;;4918228;29;20568;-85
2023/04/19 09:27:13;;;;;;;4.37;3.97;;;14.70;71.10;;;;;;4920243;29;20455;-85
2023/04/19 09:29:39;;;;;;;4.50;4.10;;;14.70;70.00;;;;;;4918113;29;20821;-85
2023/04/19 09:32:05;;;;;;;4.83;4.20;;;14.90;66.50;;;;;;4919758;29;20411;-86
2023/04/19 09:34:31;;;;;;;3.57;3.27;;;14.90;65.40;;;;;;4919647;29;20175;-85
2023/04/19 09:36:56;;;;;;;3.60;3.30;;;14.90;63.60;;;;;;4918828;29;20521;-85
2023/04/19 09:39:30;;;;;;;8.30;3.50;;;15.00;61.30;;;;;;4919633;29;20184;-85
2023/04/19 09:41:57;;;;;;;3.70;3.40;;;15.00;59.90;;;;;;4918866;29;20188;-85
2023/04/19 09:44:23;;;;;;;3.90;3.70;;;14.90;59.40;;;;;;4919319;29;20447;-85
2023/04/19 09:46:51;;;;;;;4.77;4.40;;;14.90;57.70;;;;;;4919002;29;20457;-85
2023/04/19 09:49:24;;;;;;;4.20;3.90;;;14.70;57.50;;;;;;4918334;29;20492;-85
2023/04/19 09:51:52;;;;;;;4.60;4.20;;;14.90;62.60;;;;;;4918375;29;20418;-85
2023/04/19 09:54:20;;;;;;;6.43;5.67;;;15.00;62.20;;;;;;4918670;29;20933;-86
2023/04/19 09:56:46;;;;;;;5.07;4.67;;;15.10;59.50;;;;;;4918496;29;20959;-85
2023/04/19 09:59:12;;;;;;;5.90;5.47;;;15.10;60.90;;;;;;4919733;29;20460;-86
2023/04/19 10:01:45;;;;;;;4.03;3.73;;;15.30;58.50;;;;;;4917855;29;20425;-86
2023/04/19 10:04:13;;;;;;;4.77;3.87;;;15.50;59.20;;;;;;4919223;29;20513;-85
2023/04/19 10:06:42;;;;;;;4.60;4.20;;;15.70;57.00;;;;;;4919114;29;20456;-85
2023/04/19 10:09:09;;;;;;;4.23;3.83;;;15.70;56.10;;;;;;4918623;29;20458;-85
2023/04/19 10:11:39;;;;;;;4.10;3.80;;;15.60;55.50;;;;;;4919118;29;20473;-85
2023/04/19 10:14:07;;;;;;;3.70;3.40;;;15.50;53.60;;;;;;4922296;29;20393;-84
2023/04/19 10:16:35;;;;;;;5.40;4.90;;;15.60;55.10;;;;;;4932351;29;20473;-85
2023/04/19 10:19:09;;;;;;;3.70;3.50;;;15.70;55.60;;;;;;4932473;29;20663;-85
2023/04/19 10:21:35;;;;;;;5.03;4.60;;;15.70;55.10;;;;;;4924721;29;20401;-85
2023/04/19 10:24:02;;;;;;;5.03;4.13;;;15.80;58.10;;;;;;4918774;29;20414;-85
2023/04/19 10:26:28;;;;;;;5.60;3.77;;;15.90;56.40;;;;;;4918912;29;20496;-85
2023/04/19 10:28:56;;;;;;;5.80;5.37;;;15.90;56.00;;;;;;4918125;29;20458;-85
2023/04/19 10:31:23;;;;;;;5.70;5.20;;;15.90;54.10;;;;;;4919385;29;20169;-85
2023/04/19 10:33:52;;;;;;;3.80;3.50;;;16.00;56.00;;;;;;4918865;29;20425;-85
2023/04/19 10:36:19;;;;;;;4.23;3.93;;;15.90;56.00;;;;;;4919682;29;20945;-85
2023/04/19 10:38:48;;;;;;;5.13;4.63;;;16.00;56.40;;;;;;4916787;29;20469;-84
2023/04/19 10:41:15;;;;;;;4.47;4.17;;;16.10;56.70;;;;;;4917631;29;20449;-85
2023/04/19 10:43:46;;;;;;;3.80;3.60;;;16.30;54.10;;;;;;4918633;29;20407;-85
2023/04/19 10:46:19;;;;;;;5.13;4.63;;;16.40;54.60;;;;;;4918327;29;20476;-85
2023/04/19 10:48:57;;;;;;;4.40;4.00;;;16.40;53.20;;;;;;4916644;29;20454;-85
2023/04/19 10:51:27;;;;;;;4.20;3.80;;;16.40;53.50;;;;;;4918278;29;20410;-86
2023/04/19 10:53:53;;;;;;;4.50;4.20;;;16.30;53.70;;;;;;4917626;29;20407;-86
2023/04/19 10:56:40;;;;;;;4.97;4.40;;;16.40;53.60;;;;;;4918210;29;20418;-86
2023/04/19 10:59:12;;;;;;;5.37;4.67;;;16.40;52.90;;;;;;4917671;29;20198;-86
2023/04/19 11:01:44;;;;;;;4.53;4.13;;;16.70;56.10;;;;;;4918138;29;20744;-86
2023/04/19 11:04:43;;;;;;;5.10;4.63;;;16.90;54.10;;;;;;4918175;29;20853;-86
2023/04/19 11:07:09;;;;;;;4.50;4.10;;;17.10;55.60;;;;;;4900353;29;20466;-86
2023/04/19 11:09:41;;;;;;;5.73;4.43;;;17.10;55.80;;;;;;4916928;29;20423;-86
2023/04/19 11:12:20;;;;;;;4.90;4.50;;;17.30;56.80;;;;;;4917325;29;20230;-86
2023/04/19 11:14:53;;;;;;;4.70;4.30;;;17.30;55.20;;;;;;4917308;29;20474;-85
2023/04/19 11:17:30;;;;;;;5.50;5.10;;;17.30;56.80;;;;;;4917955;29;20474;-85
2023/04/19 11:20:00;;;;;;;4.47;4.17;;;17.20;54.40;;;;;;4917685;29;20391;-85
2023/04/19 11:22:38;;;;;;;4.60;4.30;;;17.40;53.00;;;;;;4915937;29;20422;-86
2023/04/19 11:25:20;;;;;;;13.80;7.70;;;17.40;53.00;;;;;;4917566;29;20411;-85
2023/04/19 11:27:51;;;;;;;5.60;4.90;;;17.50;53.40;;;;;;4917273;29;20537;-85
2023/04/19 11:30:27;;;;;;;4.90;4.50;;;16.70;51.10;;;;;;4918268;29;20403;-85
2023/04/19 11:32:54;;;;;;;12.03;10.93;;;16.90;54.40;;;;;;4915969;29;20398;-86
2023/04/19 11:35:22;;;;;;;5.33;4.50;;;17.00;53.70;;;;;;4917740;29;20422;-85
2023/04/19 11:37:49;;;;;;;4.83;4.53;;;17.00;53.20;;;;;;4915886;29;20758;-85
2023/04/19 11:40:17;;;;;;;5.00;4.70;;;17.10;53.60;;;;;;4917449;29;20786;-85
2023/04/19 11:43:01;;;;;;;5.40;5.00;;;17.40;56.40;;;;;;5109888;27;20562;-86
2023/04/19 11:45:33;;;;;;;76.83;16.50;;;17.60;53.30;;;;;;5090461;28;20464;-86
2023/04/19 11:47:59;;;;;;;4.60;4.20;;;17.80;52.90;;;;;;5089880;28;20387;-87
2023/04/19 11:50:41;;;;;;;4.70;4.23;;;17.90;51.30;;;;;;5072651;28;20402;-84
2023/04/19 11:53:11;;;;;;;8.60;6.33;;;18.00;52.00;;;;;;5090082;28;20407;-85
2023/04/19 11:55:37;;;;;;;4.90;4.60;;;18.00;52.80;;;;;;5072813;28;20787;-86
2023/04/19 11:58:08;;;;;;;9.90;5.77;;;18.00;51.50;;;;;;5072025;28;20433;-86
2023/04/19 12:00:34;;;;;;;6.07;5.67;;;17.90;50.40;;;;;;5072391;28;20432;-86
2023/04/19 12:03:00;;;;;;;6.17;5.63;;;17.80;49.40;;;;;;5090013;28;20406;-86
2023/04/19 12:05:26;;;;;;;5.57;5.27;;;17.90;51.00;;;;;;5072377;28;20390;-86
2023/04/19 12:08:02;;;;;;;7.20;6.70;;;17.90;53.00;;;;;;5071072;28;20460;-86
2023/04/19 12:10:31;;;;;;;5.70;5.20;;;17.90;51.90;;;;;;5089836;28;20866;-86
2023/04/19 12:12:58;;;;;;;6.93;6.33;;;17.90;52.30;;;;;;5089263;28;20403;-86
2023/04/19 12:15:43;;;;;;;6.40;5.40;;;17.80;49.80;;;;;;5089895;28;20506;-86
2023/04/19 12:18:09;;;;;;;5.87;5.37;;;17.90;51.60;;;;;;5090553;28;20387;-86
2023/04/19 12:20:37;;;;;;;6.87;6.37;;;18.00;50.30;;;;;;5094906;28;20399;-86
2023/04/19 12:23:03;;;;;;;6.57;5.80;;;18.10;50.40;;;;;;5076431;28;20449;-87
2023/04/19 12:25:30;;;;;;;6.03;5.47;;;18.00;51.00;;;;;;5105908;28;20426;-86
2023/04/19 12:27:57;;;;;;;6.40;5.87;;;18.10;50.20;;;;;;5062422;28;20415;-86
2023/04/19 12:30:23;;;;;;;5.93;5.43;;;17.90;49.70;;;;;;5089555;28;20399;-86
2023/04/19 12:32:50;;;;;;;6.50;6.00;;;17.90;51.00;;;;;;5054066;28;20414;-83
2023/04/19 12:35:16;;;;;;;5.83;5.37;;;17.80;50.90;;;;;;5089853;28;20489;-86
2023/04/19 12:37:42;;;;;;;6.30;5.70;;;17.80;50.60;;;;;;5089538;28;20394;-86
2023/04/19 12:40:09;;;;;;;5.60;5.10;;;17.90;50.90;;;;;;5070748;28;20905;-86